Time;durP1;ratioP1;P1;durP2;ratioP2;P2;SDS_P1;SDS_P2;PMS_P1;PMS_P2;Temp;Humidity;BMP_temperature;BMP_pressure;BME280_temperature;BME280_humidity;BME280_pressure;Samples;Min_cycle;Max_cycle;Signal;HPM_P1;HPM_P2
2021/09/15 00:02:11;;;;;;;6.30;5.70;;;;;;;17.21;71.50;101482.13;5014618;28;20198;-76
2021/09/15 00:04:36;;;;;;;10.80;6.07;;;;;;;17.18;71.67;101471.75;5025073;28;20194;-75
2021/09/15 00:07:02;;;;;;;9.00;6.23;;;;;;;17.15;72.11;101474.38;5016457;28;20199;-76
2021/09/15 00:09:27;;;;;;;7.33;6.50;;;;;;;17.14;71.90;101461.41;5017511;28;20202;-75
2021/09/15 00:11:54;;;;;;;7.00;6.30;;;;;;;17.13;71.95;101455.34;5028780;28;20555;-76
2021/09/15 00:14:19;;;;;;;7.57;6.10;;;;;;;17.10;72.23;101451.91;5020245;28;20557;-75
2021/09/15 00:16:46;;;;;;;6.83;6.13;;;;;;;17.06;72.81;101448.47;5020681;28;20191;-76
2021/09/15 00:19:11;;;;;;;9.53;6.63;;;;;;;17.07;71.83;101447.59;4998584;28;20183;-76
2021/09/15 00:21:36;;;;;;;6.73;6.03;;;;;;;17.03;72.76;101432.91;5016830;28;20191;-76
2021/09/15 00:24:02;;;;;;;7.87;6.30;;;;;;;17.03;72.37;101440.66;5016037;28;20304;-76
2021/09/15 00:26:27;;;;;;;7.17;6.47;;;;;;;17.03;72.74;101444.97;5010531;28;20545;-76
2021/09/15 00:28:52;;;;;;;7.67;6.93;;;;;;;17.06;72.48;101447.56;4998431;28;20249;-76
2021/09/15 00:31:18;;;;;;;7.97;6.10;;;;;;;17.01;72.58;101438.94;5015785;28;20207;-75
2021/09/15 00:33:45;;;;;;;7.73;6.27;;;;;;;17.02;72.36;101431.19;5018658;28;20687;-76
2021/09/15 00:36:10;;;;;;;8.73;6.50;;;;;;;17.05;72.26;101430.31;5034316;28;20217;-75
2021/09/15 00:38:36;;;;;;;7.10;6.40;;;;;;;17.01;72.72;101434.63;5036429;28;20195;-76
2021/09/15 00:41:01;;;;;;;12.63;6.77;;;;;;;17.04;72.59;101437.22;5024335;28;20210;-75
2021/09/15 00:43:27;;;;;;;7.40;6.57;;;;;;;17.02;72.75;101440.66;5020532;28;20194;-75
2021/09/15 00:45:52;;;;;;;10.10;6.53;;;;;;;17.00;72.93;101440.66;5007198;28;20264;-76
2021/09/15 00:48:18;;;;;;;8.73;6.43;;;;;;;17.00;72.39;101439.81;5002074;28;20285;-76
2021/09/15 00:50:44;;;;;;;11.13;6.93;;;;;;;16.95;73.30;101437.19;5022865;28;20223;-76
2021/09/15 00:53:10;;;;;;;8.13;6.90;;;;;;;16.94;73.41;101421.69;5017977;28;20683;-76
2021/09/15 00:55:37;;;;;;;7.60;6.67;;;;;;;16.95;73.67;101431.16;5029795;28;20318;-76
2021/09/15 00:58:05;;;;;;;8.03;6.77;;;;;;;16.92;74.15;101421.69;5014013;28;20687;-76
2021/09/15 01:00:31;;;;;;;11.20;7.10;;;;;;;16.95;73.94;101413.91;5020152;28;20230;-76
2021/09/15 01:02:58;;;;;;;8.57;6.87;;;;;;;16.94;73.94;101425.13;5002395;28;20175;-76
2021/09/15 01:05:25;;;;;;;8.93;7.63;;;;;;;16.92;73.69;101415.63;5035309;28;20675;-75
2021/09/15 01:07:54;;;;;;;7.50;6.60;;;;;;;16.89;74.25;101408.72;5018310;28;20186;-75
2021/09/15 01:10:20;;;;;;;9.33;6.73;;;;;;;16.90;73.46;101407.84;5017274;28;20200;-76
2021/09/15 01:12:59;;;;;;;7.67;6.60;;;;;;;16.88;73.61;101398.34;5033322;28;20186;-76
2021/09/15 01:15:40;;;;;;;9.90;7.40;;;;;;;16.84;73.96;101387.16;5019543;28;20285;-76
2021/09/15 01:18:38;;;;;;;10.07;7.70;;;;;;;16.83;74.15;101389.72;4998281;28;20199;-76
2021/09/15 01:21:24;;;;;;;10.57;8.13;;;;;;;16.84;73.87;101386.28;5034027;28;20214;-76
2021/09/15 01:24:09;;;;;;;10.57;7.07;;;;;;;16.86;73.40;101393.19;5020808;28;20570;-76
2021/09/15 01:26:53;;;;;;;8.30;7.50;;;;;;;16.85;73.69;101382.84;5019243;28;20283;-76
2021/09/15 01:29:37;;;;;;;8.73;7.53;;;;;;;16.86;73.55;101385.41;5018451;28;20225;-76
2021/09/15 01:32:15;;;;;;;10.80;8.07;;;;;;;16.85;73.77;101383.69;5001310;28;20210;-76
2021/09/15 01:34:43;;;;;;;9.57;8.07;;;;;;;16.82;74.18;101380.25;5006814;28;20257;-76
2021/09/15 01:37:15;;;;;;;8.63;7.60;;;;;;;16.79;74.20;101385.41;5017527;28;20267;-76
2021/09/15 01:39:52;;;;;;;10.40;8.47;;;;;;;16.76;74.06;101394.00;5022694;28;20202;-76
2021/09/15 01:42:18;;;;;;;9.43;7.97;;;;;;;16.79;73.78;101400.91;5038077;28;20275;-76
2021/09/15 01:44:46;;;;;;;9.07;8.03;;;;;;;16.76;74.26;101404.34;5035836;28;20210;-75
2021/09/15 01:47:15;;;;;;;9.27;7.67;;;;;;;16.79;74.45;101401.78;5037513;28;20565;-76
2021/09/15 01:49:42;;;;;;;8.53;7.73;;;;;;;16.81;74.08;101396.63;5033897;28;20246;-76
2021/09/15 01:52:10;;;;;;;9.40;8.43;;;;;;;16.76;74.60;101396.59;5035876;28;20197;-76
2021/09/15 01:54:36;;;;;;;10.93;8.50;;;;;;;16.72;74.89;101394.00;5017027;28;20207;-76
2021/09/15 01:57:03;;;;;;;8.80;7.90;;;;;;;16.72;74.37;101396.59;5001864;28;20838;-76
2021/09/15 01:59:48;;;;;;;11.33;8.20;;;;;;;16.70;74.08;101404.34;5003634;28;20198;-76
2021/09/15 02:02:32;;;;;;;8.90;7.70;;;;;;;16.67;74.57;101401.75;5017803;28;20201;-76
2021/09/15 02:04:58;;;;;;;10.27;8.07;;;;;;;16.68;74.43;101398.31;5024779;28;20179;-75
2021/09/15 02:07:43;;;;;;;9.23;8.23;;;;;;;16.70;74.65;101385.38;5037099;28;20182;-76
2021/09/15 02:10:26;;;;;;;10.73;7.97;;;;;;;16.68;74.58;101387.97;5026518;28;20234;-75
2021/09/15 02:12:52;;;;;;;9.70;8.10;;;;;;;16.68;74.39;101381.94;5001706;28;20655;-75
2021/09/15 02:15:18;;;;;;;11.00;9.37;;;;;;;16.68;74.60;101380.22;5025349;28;20216;-75
2021/09/15 02:17:47;;;;;;;9.00;8.10;;;;;;;16.66;74.68;101376.75;5020318;28;20185;-76
2021/09/15 02:20:29;;;;;;;11.23;8.37;;;;;;;16.68;74.45;101379.34;5025341;28;20238;-76
2021/09/15 02:23:03;;;;;;;9.80;8.40;;;;;;;16.66;74.36;101375.88;5019411;28;20186;-76
2021/09/15 02:25:36;;;;;;;9.53;8.53;;;;;;;16.63;74.85;101374.13;5036349;28;20751;-76
2021/09/15 02:28:09;;;;;;;11.07;8.67;;;;;;;16.63;74.41;101365.53;5006557;28;20184;-77
2021/09/15 02:30:54;;;;;;;9.60;8.60;;;;;;;16.63;74.96;101383.63;5016949;28;20211;-76
2021/09/15 02:33:40;;;;;;;11.27;8.17;;;;;;;16.62;74.99;101372.41;5017277;28;20187;-76
2021/09/15 02:36:14;;;;;;;10.90;8.67;;;;;;;16.59;74.70;101372.44;5035010;28;20233;-76
2021/09/15 02:38:58;;;;;;;10.70;8.97;;;;;;;16.60;75.02;101365.50;5037509;28;20273;-76
2021/09/15 02:41:29;;;;;;;12.07;9.00;;;;;;;16.56;74.90;101363.78;5033782;28;20277;-76
2021/09/15 02:44:11;;;;;;;9.97;8.97;;;;;;;16.54;74.91;101361.16;5033481;28;20186;-76
2021/09/15 02:47:03;;;;;;;11.07;8.77;;;;;;;16.54;75.07;101360.31;5011240;28;20195;-75
2021/09/15 02:50:03;;;;;;;10.17;9.17;;;;;;;16.53;74.64;101363.78;5009048;28;20280;-75
2021/09/15 02:52:50;;;;;;;11.70;8.97;;;;;;;16.55;74.43;101362.03;5011822;28;20199;-75
2021/09/15 02:55:35;;;;;;;10.10;8.67;;;;;;;16.54;74.61;101350.81;4999732;28;20211;-76
2021/09/15 02:58:19;;;;;;;10.10;9.07;;;;;;;16.51;74.95;101352.56;5013888;28;20244;-75
2021/09/15 03:00:49;;;;;;;10.40;9.30;;;;;;;16.44;75.44;101348.22;5025466;28;20698;-76
2021/09/15 03:03:28;;;;;;;11.23;9.37;;;;;;;16.43;75.23;101357.69;5032178;28;20262;-76
2021/09/15 03:06:01;;;;;;;9.70;8.40;;;;;;;16.47;75.03;101367.19;5013016;28;20214;-76
2021/09/15 03:09:04;;;;;;;11.67;9.47;;;;;;;16.43;75.30;101367.16;5002206;28;20836;-75
2021/09/15 03:11:31;;;;;;;11.77;9.97;;;;;;;16.41;75.06;101362.00;5021767;28;20198;-75
2021/09/15 03:13:56;;;;;;;11.60;9.43;;;;;;;16.41;75.84;101361.13;5030473;28;20763;-75
2021/09/15 03:16:25;;;;;;;11.40;9.60;;;;;;;16.42;75.36;101357.69;5032428;28;20321;-75
2021/09/15 03:18:52;;;;;;;10.37;9.13;;;;;;;16.41;76.05;101364.59;5032205;28;20270;-76
2021/09/15 03:21:17;;;;;;;12.13;10.00;;;;;;;16.37;75.35;101361.94;5026351;28;20250;-75
2021/09/15 03:23:43;;;;;;;10.63;9.53;;;;;;;16.40;75.77;101359.41;5014543;28;20221;-75
2021/09/15 03:26:08;;;;;;;11.13;9.53;;;;;;;16.40;75.12;101355.09;5032051;28;20187;-76
2021/09/15 03:28:34;;;;;;;11.27;9.70;;;;;;;16.40;75.75;101352.50;5021291;28;20588;-76
2021/09/15 03:30:59;;;;;;;10.80;9.23;;;;;;;16.38;75.98;101345.56;5003699;28;20218;-76
2021/09/15 03:33:25;;;;;;;11.60;9.57;;;;;;;16.37;75.84;101343.84;5013829;28;20194;-75
2021/09/15 03:35:50;;;;;;;11.77;10.00;;;;;;;16.32;76.23;101345.56;5019386;28;20215;-75
2021/09/15 03:38:16;;;;;;;12.90;10.30;;;;;;;16.27;76.55;101347.25;4994324;28;20184;-76
2021/09/15 03:40:42;;;;;;;11.73;9.03;;;;;;;16.34;75.81;101328.34;4999206;28;20681;-76
2021/09/15 03:43:08;;;;;;;11.03;10.00;;;;;;;16.31;76.00;101324.00;4998836;28;20179;-75
2021/09/15 03:45:33;;;;;;;10.60;9.47;;;;;;;16.29;76.29;101330.03;5013522;28;20194;-76
2021/09/15 03:47:59;;;;;;;11.97;9.97;;;;;;;16.26;76.49;101336.03;5014017;28;20187;-76
2021/09/15 03:50:25;;;;;;;13.07;9.73;;;;;;;16.22;76.75;101308.47;5005983;28;20210;-76
2021/09/15 03:52:50;;;;;;;11.00;9.90;;;;;;;16.28;76.40;101311.09;4997560;28;20251;-75
2021/09/15 03:55:16;;;;;;;12.87;10.27;;;;;;;16.23;76.45;101314.50;5020849;28;20252;-76
2021/09/15 03:57:42;;;;;;;13.00;10.40;;;;;;;16.20;76.57;101314.47;5033643;28;20184;-76
2021/09/15 04:00:10;;;;;;;12.47;10.33;;;;;;;16.18;76.51;101313.63;5033742;28;20236;-76
2021/09/15 04:02:38;;;;;;;13.90;10.53;;;;;;;16.20;76.93;101311.88;5036016;28;20690;-75
2021/09/15 04:05:06;;;;;;;12.77;10.97;;;;;;;16.18;77.21;101314.50;5014963;28;20191;-76
2021/09/15 04:07:32;;;;;;;13.30;10.00;;;;;;;16.20;76.69;101312.75;5033700;28;20190;-75
2021/09/15 04:09:57;;;;;;;11.37;10.27;;;;;;;16.20;76.47;101307.59;5004756;28;20199;-76
2021/09/15 04:12:23;;;;;;;11.63;10.23;;;;;;;16.18;77.27;101303.28;5033512;28;20183;-76
2021/09/15 04:14:48;;;;;;;11.50;10.30;;;;;;;16.15;77.11;101288.63;5017207;28;20261;-75
2021/09/15 04:17:14;;;;;;;17.83;10.77;;;;;;;16.15;77.01;101293.78;5004356;28;20191;-76
2021/09/15 04:19:39;;;;;;;13.93;10.87;;;;;;;16.15;76.83;101298.09;5026595;28;20217;-76
2021/09/15 04:22:08;;;;;;;15.23;11.20;;;;;;;16.15;77.45;101274.84;5030595;28;20192;-76
2021/09/15 04:31:15;;;;;;;13.30;11.00;;;;;;;16.13;77.43;101280.03;5032848;28;20258;-75
2021/09/15 04:32:34;;;;;;;12.67;10.77;;;;;;;16.15;77.06;101267.94;5018114;28;20214;-75
2021/09/15 04:34:59;;;;;;;11.90;10.37;;;;;;;16.16;77.35;101276.59;5005915;28;20260;-76
2021/09/15 04:37:25;;;;;;;13.13;10.80;;;;;;;16.16;76.96;101282.59;5034009;28;20231;-76
2021/09/15 04:39:50;;;;;;;12.20;10.90;;;;;;;16.17;77.02;101283.47;5034476;28;20214;-77
2021/09/15 04:42:16;;;;;;;14.53;10.83;;;;;;;16.19;77.35;101277.44;5018171;28;20676;-76
2021/09/15 04:44:42;;;;;;;11.60;10.40;;;;;;;16.19;77.18;101279.16;5036730;28;20324;-77
2021/09/15 04:47:07;;;;;;;12.73;11.13;;;;;;;16.14;76.93;101263.66;5001449;28;20188;-76
2021/09/15 04:49:33;;;;;;;12.47;10.80;;;;;;;16.14;77.26;101265.34;5036757;28;20195;-76
2021/09/15 04:51:59;;;;;;;13.50;10.77;;;;;;;16.14;77.25;101268.81;5012982;28;20187;-76
2021/09/15 04:54:26;;;;;;;14.67;11.30;;;;;;;16.15;77.12;101274.84;5013865;28;20210;-76
2021/09/15 04:56:54;;;;;;;13.10;11.73;;;;;;;16.13;77.06;101272.25;5015342;28;20183;-76
2021/09/15 04:59:22;;;;;;;12.40;11.10;;;;;;;16.11;77.01;101268.78;5018314;28;20186;-76
2021/09/15 05:01:47;;;;;;;13.30;11.33;;;;;;;16.12;77.25;101270.50;5017697;28;20187;-76
2021/09/15 05:04:13;;;;;;;15.13;12.00;;;;;;;16.12;77.63;101269.69;5005443;28;20799;-76
2021/09/15 05:06:41;;;;;;;15.00;11.23;;;;;;;16.07;77.79;101276.53;5017522;28;20198;-76
2021/09/15 05:09:07;;;;;;;15.10;11.70;;;;;;;16.10;77.52;101269.66;5017724;28;20179;-76
2021/09/15 05:11:39;;;;;;;14.17;10.40;;;;;;;16.07;77.95;101268.78;5013057;28;20182;-76
2021/09/15 05:14:05;;;;;;;12.23;10.93;;;;;;;16.09;77.71;101267.06;5038043;28;20202;-76
2021/09/15 05:16:31;;;;;;;13.63;11.77;;;;;;;16.12;77.47;101264.50;5021177;28;20219;-76
2021/09/15 05:18:57;;;;;;;14.37;11.50;;;;;;;16.13;77.70;101264.53;5038563;28;20823;-76
2021/09/15 05:21:23;;;;;;;15.70;11.10;;;;;;;16.13;77.48;101253.31;5037205;28;20198;-76
2021/09/15 05:23:48;;;;;;;14.20;11.20;;;;;;;16.12;77.73;101252.44;5037821;28;20216;-76
2021/09/15 05:26:15;;;;;;;11.37;10.17;;;;;;;16.08;78.10;101255.00;5037827;28;20274;-76
2021/09/15 05:28:40;;;;;;;14.13;10.77;;;;;;;16.14;77.45;101262.78;5037710;28;20211;-76
2021/09/15 05:31:06;;;;;;;12.97;11.20;;;;;;;16.13;77.40;101267.09;5021658;28;20210;-76
2021/09/15 05:33:31;;;;;;;12.73;11.00;;;;;;;16.13;77.44;101259.34;5037757;28;20293;-76
2021/09/15 05:35:57;;;;;;;13.07;11.07;;;;;;;16.13;78.21;101259.34;5022106;28;20714;-76
2021/09/15 05:38:22;;;;;;;13.50;11.40;;;;;;;16.16;77.62;101261.06;5038540;28;20179;-76
2021/09/15 05:41:08;;;;;;;13.40;11.03;;;;;;;16.20;77.54;101262.78;5024407;28;20214;-76
2021/09/15 05:43:34;;;;;;;13.20;11.67;;;;;;;16.21;77.70;101260.22;5036986;28;20345;-76
2021/09/15 05:45:59;;;;;;;13.27;11.27;;;;;;;16.22;77.79;101254.22;5037297;28;20175;-77
2021/09/15 05:48:25;;;;;;;13.97;11.03;;;;;;;16.20;78.42;101253.31;5009037;28;20218;-76
2021/09/15 05:50:51;;;;;;;12.63;11.27;;;;;;;16.20;77.86;101255.03;5018781;28;20245;-76
2021/09/15 05:53:16;;;;;;;13.00;10.63;;;;;;;16.25;77.41;101254.19;5017350;28;20184;-76
2021/09/15 05:55:42;;;;;;;13.93;11.50;;;;;;;16.28;77.72;101250.75;5016717;28;20247;-76
2021/09/15 05:58:07;;;;;;;12.50;11.20;;;;;;;16.27;77.52;101254.22;5019000;28;20233;-76
2021/09/15 06:00:32;;;;;;;12.67;11.13;;;;;;;16.29;77.09;101249.88;5017261;28;20418;-76
2021/09/15 06:03:06;;;;;;;14.87;11.43;;;;;;;16.29;77.52;101248.19;5016766;28;20222;-76
2021/09/15 06:05:49;;;;;;;12.60;11.13;;;;;;;16.33;77.17;101246.47;5050469;28;20209;-76
2021/09/15 06:08:17;;;;;;;12.93;11.30;;;;;;;16.33;77.56;101251.63;5034642;28;20208;-76
2021/09/15 06:10:43;;;;;;;15.23;11.47;;;;;;;16.35;77.09;101237.00;5032795;28;20230;-76
2021/09/15 06:13:08;;;;;;;12.47;11.10;;;;;;;16.38;77.60;101244.75;5016734;28;20195;-76
2021/09/15 06:15:34;;;;;;;12.43;11.13;;;;;;;16.40;77.15;101240.50;5017042;28;20212;-76
2021/09/15 06:17:59;;;;;;;13.03;11.43;;;;;;;16.38;77.13;101247.34;5017078;28;20626;-76
2021/09/15 06:20:31;;;;;;;12.50;11.20;;;;;;;16.39;77.25;101244.75;5034347;28;20264;-76
2021/09/15 06:23:12;;;;;;;12.47;10.70;;;;;;;16.47;76.92;101237.03;5034823;28;20175;-76
2021/09/15 06:25:45;;;;;;;13.10;11.33;;;;;;;16.50;76.60;101243.09;5016009;28;20214;-76
2021/09/15 06:28:12;;;;;;;12.83;11.63;;;;;;;16.48;77.49;101228.47;5018317;28;20262;-76
2021/09/15 06:30:40;;;;;;;14.63;11.23;;;;;;;16.50;77.48;101231.88;5016969;28;20257;-76
2021/09/15 06:33:06;;;;;;;13.97;11.17;;;;;;;16.55;76.81;101225.88;5014585;28;20692;-76
2021/09/15 06:35:32;;;;;;;13.70;11.43;;;;;;;16.50;77.11;101230.19;5013113;28;20217;-75
2021/09/15 06:37:57;;;;;;;14.60;10.73;;;;;;;16.57;77.17;101228.47;5013326;28;20199;-75
2021/09/15 06:40:23;;;;;;;14.63;10.43;;;;;;;16.55;77.13;101230.16;4996918;28;20199;-76
2021/09/15 06:42:48;;;;;;;13.03;11.07;;;;;;;16.58;76.76;101232.78;5015897;28;20549;-76
2021/09/15 06:45:13;;;;;;;14.23;12.00;;;;;;;16.58;77.10;101240.53;5016505;28;20250;-75
2021/09/15 06:47:44;;;;;;;14.00;11.73;;;;;;;16.60;76.89;101237.09;5010327;28;20227;-78
2021/09/15 06:50:11;;;;;;;12.73;11.20;;;;;;;16.62;76.67;101231.91;5012701;28;20211;-75
2021/09/15 06:52:36;;;;;;;14.13;11.50;;;;;;;16.58;77.46;101232.78;5010312;28;20198;-75
2021/09/15 06:55:03;;;;;;;13.97;12.10;;;;;;;16.54;76.95;101231.88;5012489;28;20199;-75
2021/09/15 06:57:29;;;;;;;13.27;11.97;;;;;;;16.57;76.88;101243.97;5013889;28;20199;-75
2021/09/15 06:59:55;;;;;;;13.23;11.83;;;;;;;16.61;76.67;101236.22;5012767;28;20247;-77
2021/09/15 07:02:20;;;;;;;12.37;11.03;;;;;;;16.56;77.27;101232.75;5013683;28;20207;-76
2021/09/15 07:04:45;;;;;;;13.40;11.77;;;;;;;16.57;76.92;101233.66;5012824;28;20254;-76
2021/09/15 07:07:11;;;;;;;13.17;11.60;;;;;;;16.53;77.52;101235.34;4973237;28;20251;-75
2021/09/15 07:09:36;;;;;;;13.27;11.17;;;;;;;16.56;77.15;101237.94;4974695;28;20211;-76
2021/09/15 07:12:01;;;;;;;13.03;11.80;;;;;;;16.64;77.25;101227.59;5016937;28;20184;-76
2021/09/15 07:14:27;;;;;;;13.07;11.70;;;;;;;16.64;76.87;101225.00;5015382;28;20281;-77
2021/09/15 07:16:52;;;;;;;13.17;11.73;;;;;;;16.61;77.54;101235.34;5015755;28;20191;-76
2021/09/15 07:19:18;;;;;;;13.67;11.67;;;;;;;16.58;76.92;101225.00;5015681;28;20207;-76
2021/09/15 07:21:43;;;;;;;12.23;11.00;;;;;;;16.64;76.95;101240.53;4996002;28;20509;-76
2021/09/15 07:24:08;;;;;;;13.90;11.77;;;;;;;16.65;77.37;101235.38;5013527;28;20648;-78
2021/09/15 07:26:34;;;;;;;13.30;11.90;;;;;;;16.65;77.44;101240.53;5015119;28;20599;-77
2021/09/15 07:28:59;;;;;;;12.87;11.43;;;;;;;16.67;76.88;101237.97;5016518;28;20805;-76
2021/09/15 07:31:24;;;;;;;14.07;12.10;;;;;;;16.70;77.29;101236.22;5015798;28;20215;-76
2021/09/15 07:33:50;;;;;;;14.23;11.73;;;;;;;16.76;77.12;101232.78;5015724;28;20261;-76
2021/09/15 07:36:16;;;;;;;12.90;11.60;;;;;;;16.74;77.30;101243.13;5015492;28;20241;-76
2021/09/15 07:38:41;;;;;;;13.00;11.07;;;;;;;16.82;76.70;101249.19;4998562;28;20186;-76
2021/09/15 07:41:07;;;;;;;13.83;11.23;;;;;;;16.87;76.49;101251.75;5015029;28;20235;-76
2021/09/15 07:43:32;;;;;;;13.27;11.70;;;;;;;16.95;75.87;101257.81;5016212;28;20191;-77
2021/09/15 07:45:57;;;;;;;12.57;11.27;;;;;;;17.03;75.82;101264.69;4997976;28;20183;-75
2021/09/15 07:48:24;;;;;;;13.87;12.47;;;;;;;17.01;76.00;101273.31;5001080;28;20852;-76
2021/09/15 07:50:50;;;;;;;12.50;11.20;;;;;;;17.12;75.57;101264.69;4998377;28;20207;-76
2021/09/15 07:53:17;;;;;;;13.33;11.97;;;;;;;17.17;75.51;101262.97;5016037;28;20182;-76
2021/09/15 07:55:43;;;;;;;12.60;11.30;;;;;;;17.14;76.36;101256.94;5019860;28;20699;-76
2021/09/15 07:58:09;;;;;;;13.47;12.17;;;;;;;17.07;76.19;101265.56;5019077;28;20182;-76
2021/09/15 08:00:34;;;;;;;13.80;11.73;;;;;;;17.14;75.85;101267.28;5003434;28;20213;-76
2021/09/15 08:02:59;;;;;;;12.60;10.93;;;;;;;17.19;76.43;101263.84;5018950;28;20195;-76
2021/09/15 08:05:25;;;;;;;13.00;10.83;;;;;;;17.24;75.69;101263.81;5020464;28;20176;-76
2021/09/15 08:07:50;;;;;;;12.37;10.80;;;;;;;17.27;75.33;101262.09;5018990;28;20219;-76
2021/09/15 08:10:15;;;;;;;12.83;11.57;;;;;;;17.37;75.35;101258.63;5018641;28;20206;-76
2021/09/15 08:12:41;;;;;;;13.33;11.53;;;;;;;17.39;75.26;101258.63;5018533;28;20699;-76
2021/09/15 08:15:07;;;;;;;13.10;11.80;;;;;;;17.44;74.77;101264.69;5018189;28;20219;-75
2021/09/15 08:17:33;;;;;;;12.30;10.47;;;;;;;17.60;75.36;101253.44;5002367;28;20897;-76
2021/09/15 08:19:58;;;;;;;14.80;11.63;;;;;;;17.63;75.18;101263.78;5018273;28;20222;-76
2021/09/15 08:22:23;;;;;;;13.07;11.77;;;;;;;17.59;75.59;101262.09;5000435;28;20542;-76
2021/09/15 08:24:49;;;;;;;13.53;11.97;;;;;;;17.63;74.70;101266.38;5017944;28;20668;-75
2021/09/15 08:27:14;;;;;;;12.20;10.83;;;;;;;17.73;74.40;101258.56;5016254;28;20213;-76
2021/09/15 08:29:39;;;;;;;13.27;11.87;;;;;;;17.85;74.40;101265.44;5018398;28;20384;-76
2021/09/15 08:32:06;;;;;;;12.33;11.03;;;;;;;17.89;74.49;101261.97;5015966;28;20195;-77
2021/09/15 08:34:31;;;;;;;12.00;10.80;;;;;;;17.90;74.63;101264.56;5016772;28;20214;-76
2021/09/15 08:36:57;;;;;;;14.07;12.57;;;;;;;17.86;74.18;101274.94;5018033;28;20740;-75
2021/09/15 08:39:22;;;;;;;12.50;11.20;;;;;;;17.97;73.83;101268.84;5030566;28;20567;-76
2021/09/15 08:41:50;;;;;;;13.53;12.10;;;;;;;17.97;73.63;101268.84;5017939;28;20563;-76
2021/09/15 08:44:16;;;;;;;13.50;12.00;;;;;;;18.02;73.71;101267.13;5016319;28;20198;-76
2021/09/15 08:46:43;;;;;;;13.77;12.43;;;;;;;17.98;73.81;101270.59;5016672;28;20556;-76
2021/09/15 08:49:10;;;;;;;14.23;11.70;;;;;;;18.02;73.36;101271.44;5004192;28;20239;-75
2021/09/15 08:51:35;;;;;;;12.70;11.40;;;;;;;18.16;72.92;101272.25;5017207;28;20599;-76
2021/09/15 08:54:01;;;;;;;12.73;11.43;;;;;;;18.28;72.65;101261.81;5017950;28;20187;-76
2021/09/15 08:56:29;;;;;;;13.60;12.23;;;;;;;18.23;72.57;101264.41;5015349;28;20223;-76
2021/09/15 08:58:54;;;;;;;15.50;12.03;;;;;;;18.23;72.62;101264.41;5016890;28;20195;-77
2021/09/15 09:01:22;;;;;;;14.03;12.03;;;;;;;18.28;72.70;101267.84;5015806;28;20610;-76
2021/09/15 09:03:52;;;;;;;12.67;11.33;;;;;;;18.47;72.54;101266.06;5016307;28;20187;-77
2021/09/15 09:06:20;;;;;;;13.53;12.23;;;;;;;18.43;72.27;101260.00;5015358;28;20223;-75
2021/09/15 09:08:52;;;;;;;13.30;11.90;;;;;;;18.45;72.07;101265.19;5016405;28;20199;-76
2021/09/15 09:11:18;;;;;;;13.67;11.83;;;;;;;18.47;72.21;101259.13;5016653;28;20341;-75
2021/09/15 09:13:59;;;;;;;12.13;10.93;;;;;;;18.71;71.48;101247.75;5017264;28;20195;-76
2021/09/15 09:16:38;;;;;;;13.60;11.40;;;;;;;18.72;71.34;101249.47;5015893;28;20687;-76
2021/09/15 09:19:06;;;;;;;14.07;11.20;;;;;;;18.65;71.45;101243.44;4980399;28;1020131;-76
2021/09/15 09:21:34;;;;;;;12.77;11.47;;;;;;;18.90;71.17;101244.13;5017237;28;20187;-77
2021/09/15 09:24:05;;;;;;;14.87;11.53;;;;;;;19.01;70.70;101242.28;5018349;28;20213;-76
2021/09/15 09:26:50;;;;;;;12.87;11.57;;;;;;;19.04;70.82;101243.16;5017046;28;20190;-76
2021/09/15 09:29:25;;;;;;;12.63;11.20;;;;;;;19.12;71.35;101240.47;5016920;28;20196;-76
2021/09/15 09:32:15;;;;;;;13.80;11.60;;;;;;;18.92;71.55;101239.78;5017116;28;20187;-76
2021/09/15 09:34:48;;;;;;;13.13;11.73;;;;;;;18.71;72.76;101233.03;5016433;28;20219;-76
2021/09/15 09:37:17;;;;;;;13.90;11.80;;;;;;;18.79;73.13;101230.38;5000361;28;20763;-76
2021/09/15 09:39:51;;;;;;;12.63;11.30;;;;;;;18.66;72.22;101221.81;5017718;28;20226;-76
2021/09/15 09:42:22;;;;;;;13.20;12.00;;;;;;;18.66;73.10;101224.41;5017813;28;20179;-76
2021/09/15 09:45:11;;;;;;;13.23;11.77;;;;;;;18.67;72.82;101225.28;5016866;28;20203;-76
2021/09/15 09:47:38;;;;;;;13.50;11.97;;;;;;;18.79;72.78;101226.03;5003252;28;20642;-78
2021/09/15 09:50:10;;;;;;;14.93;12.30;;;;;;;18.84;73.00;101208.69;4998233;28;20195;-77
2021/09/15 09:52:57;;;;;;;16.03;13.40;;;;;;;18.91;74.22;101212.09;5001080;28;20175;-77
2021/09/15 09:55:24;;;;;;;15.23;13.13;;;;;;;18.88;73.21;101210.38;5017492;28;20622;-76
2021/09/15 09:57:53;;;;;;;15.20;12.43;;;;;;;19.04;73.19;101205.94;5017268;28;20197;-78
2021/09/15 10:00:21;;;;;;;13.87;12.47;;;;;;;18.96;73.49;101205.13;4999765;28;20747;-76
2021/09/15 10:02:47;;;;;;;13.40;11.97;;;;;;;18.91;73.58;101197.41;5016276;28;20179;-77
2021/09/15 10:05:18;;;;;;;14.17;12.77;;;;;;;18.98;74.20;101191.25;5016359;28;20171;-76
2021/09/15 10:07:45;;;;;;;14.67;12.53;;;;;;;18.98;74.00;101191.25;5015256;28;20223;-76
2021/09/15 10:10:12;;;;;;;13.43;12.10;;;;;;;19.03;74.14;101176.50;5016185;28;20618;-77
2021/09/15 10:12:38;;;;;;;14.50;13.00;;;;;;;19.08;75.48;101182.53;4999254;28;20222;-76
2021/09/15 10:15:06;;;;;;;13.93;12.57;;;;;;;19.03;74.46;101180.84;5015962;28;20349;-77
2021/09/15 10:17:34;;;;;;;13.70;12.40;;;;;;;18.98;74.55;101178.28;5016382;28;20179;-77
2021/09/15 10:20:00;;;;;;;14.10;12.70;;;;;;;19.02;74.22;101173.94;4999207;28;20245;-77
2021/09/15 10:22:30;;;;;;;17.00;13.60;;;;;;;18.95;74.17;101174.84;5016003;28;20222;-76
2021/09/15 10:24:58;;;;;;;14.73;13.17;;;;;;;18.90;74.73;101172.31;5015693;28;20229;-75
2021/09/15 10:27:26;;;;;;;15.10;13.47;;;;;;;18.91;74.96;101170.56;5016222;28;20171;-75
2021/09/15 10:30:12;;;;;;;15.47;13.83;;;;;;;18.93;75.92;101166.25;5015568;28;20215;-76
2021/09/15 10:32:49;;;;;;;15.67;14.07;;;;;;;18.95;75.35;101167.06;5015463;28;20269;-76
2021/09/15 10:35:35;;;;;;;15.10;13.27;;;;;;;18.91;75.70;101167.97;5016200;28;20211;-76
2021/09/15 10:38:00;;;;;;;18.27;13.53;;;;;;;18.92;75.93;101164.50;5014690;28;20183;-76
2021/09/15 10:40:31;;;;;;;16.67;14.20;;;;;;;18.93;75.52;101161.06;5015890;28;20218;-76
2021/09/15 10:42:56;;;;;;;15.53;14.07;;;;;;;18.93;75.62;101156.69;5031128;28;20190;-76
2021/09/15 10:45:26;;;;;;;15.57;14.00;;;;;;;18.97;76.57;101163.59;5035302;28;20178;-75
2021/09/15 10:47:53;;;;;;;16.00;14.30;;;;;;;19.04;77.02;101160.06;5035781;28;20604;-76
2021/09/15 10:50:27;;;;;;;15.93;13.97;;;;;;;18.93;76.08;101168.84;5034420;28;20302;-75
2021/09/15 10:53:08;;;;;;;16.83;13.73;;;;;;;18.93;76.00;101167.09;5037183;28;20281;-76
2021/09/15 10:55:40;;;;;;;18.87;14.23;;;;;;;18.91;76.40;101158.47;5035202;28;20268;-75
2021/09/15 10:58:16;;;;;;;15.57;13.60;;;;;;;18.93;77.10;101164.47;5035551;28;20191;-76
2021/09/15 11:00:48;;;;;;;16.40;14.70;;;;;;;18.96;76.35;101163.59;5035397;28;20291;-76
2021/09/15 11:03:24;;;;;;;18.23;15.47;;;;;;;18.82;77.10;101150.75;5036486;28;20197;-76
2021/09/15 11:05:51;;;;;;;17.40;15.47;;;;;;;18.91;77.94;101145.47;5037462;28;20607;-76
2021/09/15 11:08:32;;;;;;;17.80;15.93;;;;;;;18.90;77.80;101145.50;5020132;28;20182;-76
2021/09/15 11:10:57;;;;;;;18.83;15.90;;;;;;;19.01;77.46;101148.84;5027167;28;20240;-76
2021/09/15 11:13:28;;;;;;;17.93;16.03;;;;;;;19.00;77.82;101140.19;5017481;28;20218;-76
2021/09/15 11:15:54;;;;;;;18.83;16.93;;;;;;;18.98;77.84;101136.75;5017554;28;20218;-76
2021/09/15 11:18:27;;;;;;;19.37;17.07;;;;;;;19.00;77.28;101134.13;5035415;28;20194;-76
2021/09/15 11:20:55;;;;;;;19.03;17.03;;;;;;;18.98;77.65;101134.16;5022240;28;20577;-76
2021/09/15 11:23:25;;;;;;;19.03;16.83;;;;;;;18.98;77.51;101136.75;5017650;28;20184;-76
2021/09/15 11:25:50;;;;;;;18.10;16.30;;;;;;;18.92;77.38;101141.13;5025892;28;20569;-76
2021/09/15 11:28:18;;;;;;;18.57;16.67;;;;;;;18.88;77.68;101142.06;5016873;28;20187;-75